sensor_id;sensor_type;location;lat;lon;timestamp;P1;durP1;ratioP1;P2;durP2;ratioP2
20449;SDS011;10384;51.940;8.432;2023-06-22T00:00:36;13.77;;;8.40;;
20449;SDS011;10384;51.940;8.432;2023-06-22T00:03:04;11.17;;;6.57;;
20449;SDS011;10384;51.940;8.432;2023-06-22T00:05:30;10.23;;;6.50;;
20449;SDS011;10384;51.940;8.432;2023-06-22T00:07:56;10.83;;;6.70;;
20449;SDS011;10384;51.940;8.432;2023-06-22T00:10:22;10.23;;;6.20;;
20449;SDS011;10384;51.940;8.432;2023-06-22T00:12:48;9.17;;;6.33;;
20449;SDS011;10384;51.940;8.432;2023-06-22T00:15:13;12.70;;;8.10;;
20449;SDS011;10384;51.940;8.432;2023-06-22T00:17:39;12.90;;;7.50;;
20449;SDS011;10384;51.940;8.432;2023-06-22T00:20:06;8.47;;;5.57;;
20449;SDS011;10384;51.940;8.432;2023-06-22T00:22:33;9.20;;;6.27;;
20449;SDS011;10384;51.940;8.432;2023-06-22T00:25:03;10.03;;;6.50;;
20449;SDS011;10384;51.940;8.432;2023-06-22T00:27:29;10.57;;;6.63;;
20449;SDS011;10384;51.940;8.432;2023-06-22T00:29:55;10.77;;;6.57;;
20449;SDS011;10384;51.940;8.432;2023-06-22T00:32:21;10.07;;;6.07;;
20449;SDS011;10384;51.940;8.432;2023-06-22T00:34:47;9.30;;;6.30;;
20449;SDS011;10384;51.940;8.432;2023-06-22T00:37:13;10.80;;;6.53;;
20449;SDS011;10384;51.940;8.432;2023-06-22T00:39:39;8.30;;;5.60;;
20449;SDS011;10384;51.940;8.432;2023-06-22T00:42:05;10.77;;;6.40;;
20449;SDS011;10384;51.940;8.432;2023-06-22T00:44:31;11.93;;;6.37;;
20449;SDS011;10384;51.940;8.432;2023-06-22T00:46:57;10.03;;;6.20;;
20449;SDS011;10384;51.940;8.432;2023-06-22T00:49:25;10.07;;;5.93;;
20449;SDS011;10384;51.940;8.432;2023-06-22T00:51:51;7.60;;;5.50;;
20449;SDS011;10384;51.940;8.432;2023-06-22T00:54:17;8.30;;;5.57;;
20449;SDS011;10384;51.940;8.432;2023-06-22T00:56:49;11.93;;;6.03;;
20449;SDS011;10384;51.940;8.432;2023-06-22T00:59:17;9.87;;;5.60;;
20449;SDS011;10384;51.940;8.432;2023-06-22T01:01:44;8.67;;;5.07;;
20449;SDS011;10384;51.940;8.432;2023-06-22T01:04:10;8.90;;;5.40;;
20449;SDS011;10384;51.940;8.432;2023-06-22T01:06:38;10.10;;;5.13;;
20449;SDS011;10384;51.940;8.432;2023-06-22T01:09:19;8.83;;;5.57;;
20449;SDS011;10384;51.940;8.432;2023-06-22T01:11:47;9.10;;;5.73;;
20449;SDS011;10384;51.940;8.432;2023-06-22T01:14:23;10.80;;;6.23;;
20449;SDS011;10384;51.940;8.432;2023-06-22T01:16:53;8.90;;;6.13;;
20449;SDS011;10384;51.940;8.432;2023-06-22T01:21:46;11.13;;;6.07;;
20449;SDS011;10384;51.940;8.432;2023-06-22T01:26:39;10.00;;;5.70;;
20449;SDS011;10384;51.940;8.432;2023-06-22T01:29:06;9.57;;;6.13;;
20449;SDS011;10384;51.940;8.432;2023-06-22T01:31:33;9.73;;;5.40;;
20449;SDS011;10384;51.940;8.432;2023-06-22T01:34:01;9.43;;;5.47;;
20449;SDS011;10384;51.940;8.432;2023-06-22T01:36:27;8.73;;;6.03;;
20449;SDS011;10384;51.940;8.432;2023-06-22T01:38:54;9.47;;;6.10;;
20449;SDS011;10384;51.940;8.432;2023-06-22T01:41:20;9.10;;;6.00;;
20449;SDS011;10384;51.940;8.432;2023-06-22T01:43:47;10.27;;;6.43;;
20449;SDS011;10384;51.940;8.432;2023-06-22T01:46:13;11.17;;;6.27;;
20449;SDS011;10384;51.940;8.432;2023-06-22T01:48:39;9.70;;;6.03;;
20449;SDS011;10384;51.940;8.432;2023-06-22T01:51:06;11.50;;;7.20;;
20449;SDS011;10384;51.940;8.432;2023-06-22T01:53:32;11.67;;;6.27;;
20449;SDS011;10384;51.940;8.432;2023-06-22T01:55:58;10.50;;;6.40;;
20449;SDS011;10384;51.940;8.432;2023-06-22T01:58:27;12.63;;;7.40;;
20449;SDS011;10384;51.940;8.432;2023-06-22T02:01:09;11.73;;;7.10;;
20449;SDS011;10384;51.940;8.432;2023-06-22T02:03:37;10.87;;;6.77;;
20449;SDS011;10384;51.940;8.432;2023-06-22T02:06:05;11.27;;;7.00;;
20449;SDS011;10384;51.940;8.432;2023-06-22T02:08:35;14.33;;;7.57;;
20449;SDS011;10384;51.940;8.432;2023-06-22T02:11:02;12.73;;;7.13;;
20449;SDS011;10384;51.940;8.432;2023-06-22T02:13:29;13.37;;;7.17;;
20449;SDS011;10384;51.940;8.432;2023-06-22T02:15:55;13.03;;;7.87;;
20449;SDS011;10384;51.940;8.432;2023-06-22T02:18:22;12.97;;;7.17;;
20449;SDS011;10384;51.940;8.432;2023-06-22T02:20:48;11.23;;;6.97;;
20449;SDS011;10384;51.940;8.432;2023-06-22T02:23:13;13.47;;;7.33;;
20449;SDS011;10384;51.940;8.432;2023-06-22T02:25:39;11.83;;;7.20;;
20449;SDS011;10384;51.940;8.432;2023-06-22T02:28:09;13.87;;;7.90;;
20449;SDS011;10384;51.940;8.432;2023-06-22T02:30:35;13.97;;;7.80;;
20449;SDS011;10384;51.940;8.432;2023-06-22T02:33:01;13.40;;;7.87;;
20449;SDS011;10384;51.940;8.432;2023-06-22T02:35:27;12.90;;;8.27;;
20449;SDS011;10384;51.940;8.432;2023-06-22T02:37:57;13.00;;;8.43;;
20449;SDS011;10384;51.940;8.432;2023-06-22T02:40:24;15.90;;;10.00;;
20449;SDS011;10384;51.940;8.432;2023-06-22T02:42:50;14.63;;;8.70;;
20449;SDS011;10384;51.940;8.432;2023-06-22T02:45:16;12.63;;;8.23;;
20449;SDS011;10384;51.940;8.432;2023-06-22T02:47:42;15.50;;;8.93;;
20449;SDS011;10384;51.940;8.432;2023-06-22T02:50:08;15.50;;;9.20;;
20449;SDS011;10384;51.940;8.432;2023-06-22T02:52:34;15.73;;;9.10;;
20449;SDS011;10384;51.940;8.432;2023-06-22T02:55:00;14.20;;;8.57;;
20449;SDS011;10384;51.940;8.432;2023-06-22T02:57:26;14.87;;;8.37;;
20449;SDS011;10384;51.940;8.432;2023-06-22T02:59:52;12.27;;;8.13;;
20449;SDS011;10384;51.940;8.432;2023-06-22T03:02:18;15.53;;;8.63;;
20449;SDS011;10384;51.940;8.432;2023-06-22T03:04:46;12.73;;;7.10;;
20449;SDS011;10384;51.940;8.432;2023-06-22T03:07:13;13.07;;;8.03;;
20449;SDS011;10384;51.940;8.432;2023-06-22T03:09:39;15.20;;;8.23;;
20449;SDS011;10384;51.940;8.432;2023-06-22T03:12:07;12.43;;;7.47;;
20449;SDS011;10384;51.940;8.432;2023-06-22T03:14:33;11.30;;;7.50;;
20449;SDS011;10384;51.940;8.432;2023-06-22T03:16:59;14.80;;;7.93;;
20449;SDS011;10384;51.940;8.432;2023-06-22T03:19:28;11.43;;;7.20;;
20449;SDS011;10384;51.940;8.432;2023-06-22T03:21:56;12.70;;;7.67;;
20449;SDS011;10384;51.940;8.432;2023-06-22T03:24:22;12.30;;;7.70;;
20449;SDS011;10384;51.940;8.432;2023-06-22T03:26:48;12.23;;;7.43;;
20449;SDS011;10384;51.940;8.432;2023-06-22T03:29:14;13.93;;;8.50;;
20449;SDS011;10384;51.940;8.432;2023-06-22T03:31:40;12.23;;;7.87;;
20449;SDS011;10384;51.940;8.432;2023-06-22T03:34:06;12.50;;;7.47;;
20449;SDS011;10384;51.940;8.432;2023-06-22T03:36:32;14.20;;;8.50;;
20449;SDS011;10384;51.940;8.432;2023-06-22T03:38:58;12.60;;;7.70;;
20449;SDS011;10384;51.940;8.432;2023-06-22T03:41:24;13.53;;;8.03;;
20449;SDS011;10384;51.940;8.432;2023-06-22T03:43:50;15.03;;;8.57;;
20449;SDS011;10384;51.940;8.432;2023-06-22T03:46:16;15.33;;;8.63;;
20449;SDS011;10384;51.940;8.432;2023-06-22T03:48:42;15.47;;;7.57;;
20449;SDS011;10384;51.940;8.432;2023-06-22T03:51:08;16.93;;;8.30;;
20449;SDS011;10384;51.940;8.432;2023-06-22T03:53:34;15.27;;;8.70;;
20449;SDS011;10384;51.940;8.432;2023-06-22T03:56:00;13.30;;;8.50;;
20449;SDS011;10384;51.940;8.432;2023-06-22T03:58:26;15.37;;;8.47;;
20449;SDS011;10384;51.940;8.432;2023-06-22T04:00:57;16.67;;;9.57;;
20449;SDS011;10384;51.940;8.432;2023-06-22T04:03:24;17.00;;;9.40;;
20449;SDS011;10384;51.940;8.432;2023-06-22T04:05:50;14.10;;;8.63;;
20449;SDS011;10384;51.940;8.432;2023-06-22T04:08:17;15.23;;;8.63;;
20449;SDS011;10384;51.940;8.432;2023-06-22T04:10:43;14.57;;;9.30;;
20449;SDS011;10384;51.940;8.432;2023-06-22T04:13:10;17.30;;;9.73;;
20449;SDS011;10384;51.940;8.432;2023-06-22T04:15:36;16.73;;;8.93;;
20449;SDS011;10384;51.940;8.432;2023-06-22T04:18:02;16.93;;;9.07;;
20449;SDS011;10384;51.940;8.432;2023-06-22T04:20:28;14.20;;;8.47;;
20449;SDS011;10384;51.940;8.432;2023-06-22T04:22:54;15.97;;;9.00;;
20449;SDS011;10384;51.940;8.432;2023-06-22T04:25:20;14.23;;;8.17;;
20449;SDS011;10384;51.940;8.432;2023-06-22T04:27:46;14.37;;;8.20;;
20449;SDS011;10384;51.940;8.432;2023-06-22T04:30:13;13.53;;;8.20;;
20449;SDS011;10384;51.940;8.432;2023-06-22T04:32:41;17.70;;;9.53;;
20449;SDS011;10384;51.940;8.432;2023-06-22T04:35:07;14.07;;;9.00;;
20449;SDS011;10384;51.940;8.432;2023-06-22T04:37:33;19.17;;;9.33;;
20449;SDS011;10384;51.940;8.432;2023-06-22T04:39:59;14.40;;;8.83;;
20449;SDS011;10384;51.940;8.432;2023-06-22T04:42:25;13.83;;;8.00;;
20449;SDS011;10384;51.940;8.432;2023-06-22T04:44:52;14.20;;;8.93;;
20449;SDS011;10384;51.940;8.432;2023-06-22T04:47:18;13.63;;;8.73;;
20449;SDS011;10384;51.940;8.432;2023-06-22T04:49:44;13.97;;;8.87;;
20449;SDS011;10384;51.940;8.432;2023-06-22T04:52:11;14.77;;;9.33;;
20449;SDS011;10384;51.940;8.432;2023-06-22T04:54:38;16.27;;;9.33;;
20449;SDS011;10384;51.940;8.432;2023-06-22T04:57:06;16.43;;;9.53;;
20449;SDS011;10384;51.940;8.432;2023-06-22T04:59:35;16.53;;;8.40;;
20449;SDS011;10384;51.940;8.432;2023-06-22T05:02:01;18.40;;;8.67;;
20449;SDS011;10384;51.940;8.432;2023-06-22T05:04:28;18.67;;;9.10;;
20449;SDS011;10384;51.940;8.432;2023-06-22T05:06:56;17.03;;;9.67;;
20449;SDS011;10384;51.940;8.432;2023-06-22T05:09:22;17.43;;;10.23;;
20449;SDS011;10384;51.940;8.432;2023-06-22T05:11:49;17.07;;;10.03;;
20449;SDS011;10384;51.940;8.432;2023-06-22T05:14:16;17.20;;;9.23;;
20449;SDS011;10384;51.940;8.432;2023-06-22T05:16:42;17.53;;;8.53;;
20449;SDS011;10384;51.940;8.432;2023-06-22T05:19:08;16.07;;;9.10;;
20449;SDS011;10384;51.940;8.432;2023-06-22T05:21:34;15.60;;;8.67;;
20449;SDS011;10384;51.940;8.432;2023-06-22T05:24:00;16.67;;;9.33;;
20449;SDS011;10384;51.940;8.432;2023-06-22T05:26:28;13.57;;;8.17;;
20449;SDS011;10384;51.940;8.432;2023-06-22T05:28:54;15.33;;;9.03;;
20449;SDS011;10384;51.940;8.432;2023-06-22T05:31:20;12.97;;;8.27;;
20449;SDS011;10384;51.940;8.432;2023-06-22T05:33:46;16.60;;;7.93;;
20449;SDS011;10384;51.940;8.432;2023-06-22T05:36:13;15.20;;;9.43;;
20449;SDS011;10384;51.940;8.432;2023-06-22T05:38:39;16.37;;;8.97;;
20449;SDS011;10384;51.940;8.432;2023-06-22T05:41:06;14.20;;;8.80;;
20449;SDS011;10384;51.940;8.432;2023-06-22T05:43:32;19.87;;;10.27;;
20449;SDS011;10384;51.940;8.432;2023-06-22T05:45:59;15.53;;;9.60;;
20449;SDS011;10384;51.940;8.432;2023-06-22T05:48:25;20.40;;;9.60;;
20449;SDS011;10384;51.940;8.432;2023-06-22T05:50:51;16.60;;;9.50;;
20449;SDS011;10384;51.940;8.432;2023-06-22T05:53:17;16.07;;;8.50;;
20449;SDS011;10384;51.940;8.432;2023-06-22T05:55:43;16.00;;;9.23;;
20449;SDS011;10384;51.940;8.432;2023-06-22T05:58:09;17.63;;;8.03;;
20449;SDS011;10384;51.940;8.432;2023-06-22T06:00:35;14.33;;;7.90;;
20449;SDS011;10384;51.940;8.432;2023-06-22T06:03:01;13.40;;;7.50;;
20449;SDS011;10384;51.940;8.432;2023-06-22T06:05:29;14.63;;;9.03;;
20449;SDS011;10384;51.940;8.432;2023-06-22T06:07:55;14.00;;;8.10;;
20449;SDS011;10384;51.940;8.432;2023-06-22T06:10:21;15.00;;;8.07;;
20449;SDS011;10384;51.940;8.432;2023-06-22T06:12:47;16.20;;;7.93;;
20449;SDS011;10384;51.940;8.432;2023-06-22T06:15:13;10.57;;;7.47;;
20449;SDS011;10384;51.940;8.432;2023-06-22T06:17:46;14.27;;;7.67;;
20449;SDS011;10384;51.940;8.432;2023-06-22T06:20:12;13.07;;;7.87;;
20449;SDS011;10384;51.940;8.432;2023-06-22T06:22:38;14.47;;;8.10;;
20449;SDS011;10384;51.940;8.432;2023-06-22T06:25:05;13.77;;;7.70;;
20449;SDS011;10384;51.940;8.432;2023-06-22T06:27:31;14.93;;;7.40;;
20449;SDS011;10384;51.940;8.432;2023-06-22T06:29:57;12.87;;;7.00;;
20449;SDS011;10384;51.940;8.432;2023-06-22T06:32:23;15.93;;;7.47;;
20449;SDS011;10384;51.940;8.432;2023-06-22T06:34:49;13.00;;;7.37;;
20449;SDS011;10384;51.940;8.432;2023-06-22T06:37:16;11.13;;;6.53;;
20449;SDS011;10384;51.940;8.432;2023-06-22T06:39:43;11.73;;;6.83;;
20449;SDS011;10384;51.940;8.432;2023-06-22T06:42:09;11.87;;;7.33;;
20449;SDS011;10384;51.940;8.432;2023-06-22T06:44:36;10.20;;;6.27;;
20449;SDS011;10384;51.940;8.432;2023-06-22T06:47:03;10.33;;;6.47;;
20449;SDS011;10384;51.940;8.432;2023-06-22T06:49:29;13.33;;;7.50;;
20449;SDS011;10384;51.940;8.432;2023-06-22T06:51:55;10.87;;;6.67;;
20449;SDS011;10384;51.940;8.432;2023-06-22T06:54:21;8.73;;;5.83;;
20449;SDS011;10384;51.940;8.432;2023-06-22T06:56:47;9.03;;;5.77;;
20449;SDS011;10384;51.940;8.432;2023-06-22T06:59:13;10.30;;;6.40;;
20449;SDS011;10384;51.940;8.432;2023-06-22T07:01:40;9.37;;;6.27;;
20449;SDS011;10384;51.940;8.432;2023-06-22T07:04:06;9.57;;;6.50;;
20449;SDS011;10384;51.940;8.432;2023-06-22T07:06:32;9.17;;;6.17;;
20449;SDS011;10384;51.940;8.432;2023-06-22T07:08:58;12.43;;;6.93;;
20449;SDS011;10384;51.940;8.432;2023-06-22T07:11:25;8.83;;;6.07;;
20449;SDS011;10384;51.940;8.432;2023-06-22T07:13:51;9.40;;;6.23;;
20449;SDS011;10384;51.940;8.432;2023-06-22T07:16:17;11.00;;;6.70;;
20449;SDS011;10384;51.940;8.432;2023-06-22T07:18:43;11.67;;;6.43;;
20449;SDS011;10384;51.940;8.432;2023-06-22T07:21:09;9.33;;;6.40;;
20449;SDS011;10384;51.940;8.432;2023-06-22T07:23:35;10.53;;;6.43;;
20449;SDS011;10384;51.940;8.432;2023-06-22T07:26:01;10.87;;;6.73;;
20449;SDS011;10384;51.940;8.432;2023-06-22T07:28:27;10.90;;;6.37;;
20449;SDS011;10384;51.940;8.432;2023-06-22T07:30:56;10.67;;;7.00;;
20449;SDS011;10384;51.940;8.432;2023-06-22T07:33:22;9.87;;;6.90;;
20449;SDS011;10384;51.940;8.432;2023-06-22T07:35:48;9.87;;;6.43;;
20449;SDS011;10384;51.940;8.432;2023-06-22T07:38:16;12.20;;;6.70;;
20449;SDS011;10384;51.940;8.432;2023-06-22T07:40:42;11.37;;;6.13;;
20449;SDS011;10384;51.940;8.432;2023-06-22T07:43:09;10.77;;;6.47;;
20449;SDS011;10384;51.940;8.432;2023-06-22T07:45:35;8.10;;;5.70;;
20449;SDS011;10384;51.940;8.432;2023-06-22T07:48:01;10.30;;;6.20;;
20449;SDS011;10384;51.940;8.432;2023-06-22T07:50:27;9.53;;;5.90;;
20449;SDS011;10384;51.940;8.432;2023-06-22T07:52:53;9.13;;;6.00;;
20449;SDS011;10384;51.940;8.432;2023-06-22T07:55:19;9.77;;;6.13;;
20449;SDS011;10384;51.940;8.432;2023-06-22T07:57:46;11.23;;;6.90;;
20449;SDS011;10384;51.940;8.432;2023-06-22T08:00:12;10.13;;;6.10;;
20449;SDS011;10384;51.940;8.432;2023-06-22T08:02:40;9.50;;;6.30;;
20449;SDS011;10384;51.940;8.432;2023-06-22T08:05:07;11.07;;;6.80;;
20449;SDS011;10384;51.940;8.432;2023-06-22T08:07:34;10.80;;;6.00;;
20449;SDS011;10384;51.940;8.432;2023-06-22T08:10:01;10.77;;;6.70;;
20449;SDS011;10384;51.940;8.432;2023-06-22T08:12:28;10.67;;;7.13;;
20449;SDS011;10384;51.940;8.432;2023-06-22T08:14:54;12.10;;;7.00;;
20449;SDS011;10384;51.940;8.432;2023-06-22T08:17:19;11.40;;;6.77;;
20449;SDS011;10384;51.940;8.432;2023-06-22T08:19:45;11.60;;;6.73;;
20449;SDS011;10384;51.940;8.432;2023-06-22T08:22:11;10.87;;;7.17;;
20449;SDS011;10384;51.940;8.432;2023-06-22T08:24:37;10.17;;;6.87;;
20449;SDS011;10384;51.940;8.432;2023-06-22T08:27:05;10.17;;;6.60;;
20449;SDS011;10384;51.940;8.432;2023-06-22T08:29:33;10.40;;;6.63;;
20449;SDS011;10384;51.940;8.432;2023-06-22T08:32:00;11.33;;;6.70;;
20449;SDS011;10384;51.940;8.432;2023-06-22T08:34:26;15.23;;;7.60;;
20449;SDS011;10384;51.940;8.432;2023-06-22T08:36:53;9.83;;;6.40;;
20449;SDS011;10384;51.940;8.432;2023-06-22T08:39:19;10.23;;;6.20;;
20449;SDS011;10384;51.940;8.432;2023-06-22T08:41:46;7.30;;;5.30;;
20449;SDS011;10384;51.940;8.432;2023-06-22T08:44:12;9.10;;;5.53;;
20449;SDS011;10384;51.940;8.432;2023-06-22T08:46:38;8.00;;;5.37;;
20449;SDS011;10384;51.940;8.432;2023-06-22T08:49:05;9.00;;;6.27;;
20449;SDS011;10384;51.940;8.432;2023-06-22T08:51:31;8.07;;;5.73;;
20449;SDS011;10384;51.940;8.432;2023-06-22T08:53:57;11.13;;;6.17;;
20449;SDS011;10384;51.940;8.432;2023-06-22T08:56:23;8.23;;;5.83;;
20449;SDS011;10384;51.940;8.432;2023-06-22T08:58:49;9.60;;;5.77;;
20449;SDS011;10384;51.940;8.432;2023-06-22T09:01:15;9.50;;;5.90;;
20449;SDS011;10384;51.940;8.432;2023-06-22T09:03:41;9.13;;;6.43;;
20449;SDS011;10384;51.940;8.432;2023-06-22T09:06:08;9.10;;;5.70;;
20449;SDS011;10384;51.940;8.432;2023-06-22T09:08:38;9.80;;;6.13;;
20449;SDS011;10384;51.940;8.432;2023-06-22T09:11:04;9.87;;;6.50;;
20449;SDS011;10384;51.940;8.432;2023-06-22T09:13:30;9.10;;;5.83;;
20449;SDS011;10384;51.940;8.432;2023-06-22T09:15:57;9.13;;;6.00;;
20449;SDS011;10384;51.940;8.432;2023-06-22T09:18:23;10.47;;;6.20;;
20449;SDS011;10384;51.940;8.432;2023-06-22T09:20:49;10.83;;;5.33;;
20449;SDS011;10384;51.940;8.432;2023-06-22T09:23:15;6.50;;;4.73;;
20449;SDS011;10384;51.940;8.432;2023-06-22T09:25:41;6.57;;;4.77;;
20449;SDS011;10384;51.940;8.432;2023-06-22T09:28:07;7.27;;;5.20;;
20449;SDS011;10384;51.940;8.432;2023-06-22T09:30:33;7.10;;;4.67;;
20449;SDS011;10384;51.940;8.432;2023-06-22T09:32:59;8.33;;;5.10;;
20449;SDS011;10384;51.940;8.432;2023-06-22T09:35:26;7.80;;;5.33;;
20449;SDS011;10384;51.940;8.432;2023-06-22T09:37:52;9.27;;;5.87;;
20449;SDS011;10384;51.940;8.432;2023-06-22T09:40:18;10.03;;;6.73;;
20449;SDS011;10384;51.940;8.432;2023-06-22T09:42:45;12.47;;;6.90;;
20449;SDS011;10384;51.940;8.432;2023-06-22T09:45:11;7.93;;;5.87;;
20449;SDS011;10384;51.940;8.432;2023-06-22T09:47:37;9.43;;;6.37;;
20449;SDS011;10384;51.940;8.432;2023-06-22T09:50:03;9.20;;;6.23;;
20449;SDS011;10384;51.940;8.432;2023-06-22T09:52:29;9.87;;;6.17;;
20449;SDS011;10384;51.940;8.432;2023-06-22T09:54:55;9.70;;;6.20;;
20449;SDS011;10384;51.940;8.432;2023-06-22T09:57:21;10.17;;;6.90;;
20449;SDS011;10384;51.940;8.432;2023-06-22T09:59:47;10.40;;;6.50;;
20449;SDS011;10384;51.940;8.432;2023-06-22T10:02:13;10.47;;;6.90;;
20449;SDS011;10384;51.940;8.432;2023-06-22T10:04:39;11.57;;;6.33;;
20449;SDS011;10384;51.940;8.432;2023-06-22T10:07:05;9.97;;;6.40;;
20449;SDS011;10384;51.940;8.432;2023-06-22T10:09:31;11.40;;;6.97;;
20449;SDS011;10384;51.940;8.432;2023-06-22T10:11:57;10.90;;;7.47;;
20449;SDS011;10384;51.940;8.432;2023-06-22T10:14:23;12.03;;;7.33;;
20449;SDS011;10384;51.940;8.432;2023-06-22T10:16:51;10.37;;;6.93;;
20449;SDS011;10384;51.940;8.432;2023-06-22T10:19:16;11.27;;;6.93;;
20449;SDS011;10384;51.940;8.432;2023-06-22T10:21:42;8.77;;;6.33;;
20449;SDS011;10384;51.940;8.432;2023-06-22T10:24:08;9.73;;;6.47;;
20449;SDS011;10384;51.940;8.432;2023-06-22T10:26:35;8.63;;;6.90;;
20449;SDS011;10384;51.940;8.432;2023-06-22T10:29:04;9.53;;;6.03;;
20449;SDS011;10384;51.940;8.432;2023-06-22T10:31:30;10.50;;;6.50;;
20449;SDS011;10384;51.940;8.432;2023-06-22T10:33:56;10.00;;;6.60;;
20449;SDS011;10384;51.940;8.432;2023-06-22T10:36:22;14.00;;;7.43;;
20449;SDS011;10384;51.940;8.432;2023-06-22T10:38:48;11.30;;;6.93;;
20449;SDS011;10384;51.940;8.432;2023-06-22T10:41:15;9.80;;;6.53;;
20449;SDS011;10384;51.940;8.432;2023-06-22T10:43:42;15.60;;;7.13;;
20449;SDS011;10384;51.940;8.432;2023-06-22T10:46:08;8.17;;;6.40;;
20449;SDS011;10384;51.940;8.432;2023-06-22T10:48:34;9.90;;;5.87;;
20449;SDS011;10384;51.940;8.432;2023-06-22T10:51:00;9.50;;;6.47;;
20449;SDS011;10384;51.940;8.432;2023-06-22T10:53:26;16.30;;;6.70;;
20449;SDS011;10384;51.940;8.432;2023-06-22T10:55:52;11.63;;;6.60;;
20449;SDS011;10384;51.940;8.432;2023-06-22T10:58:19;9.10;;;5.97;;
20449;SDS011;10384;51.940;8.432;2023-06-22T11:00:45;8.83;;;5.73;;
20449;SDS011;10384;51.940;8.432;2023-06-22T11:03:11;10.77;;;6.40;;
20449;SDS011;10384;51.940;8.432;2023-06-22T11:05:39;9.23;;;6.67;;
20449;SDS011;10384;51.940;8.432;2023-06-22T11:08:05;9.87;;;6.60;;
20449;SDS011;10384;51.940;8.432;2023-06-22T11:10:31;8.57;;;6.17;;
20449;SDS011;10384;51.940;8.432;2023-06-22T11:12:57;9.40;;;6.17;;
20449;SDS011;10384;51.940;8.432;2023-06-22T11:15:23;9.93;;;6.27;;
20449;SDS011;10384;51.940;8.432;2023-06-22T11:17:49;9.17;;;6.20;;
20449;SDS011;10384;51.940;8.432;2023-06-22T11:20:15;10.60;;;6.20;;
20449;SDS011;10384;51.940;8.432;2023-06-22T11:22:41;8.63;;;6.13;;
20449;SDS011;10384;51.940;8.432;2023-06-22T11:25:07;9.27;;;6.70;;
20449;SDS011;10384;51.940;8.432;2023-06-22T11:27:33;8.27;;;6.57;;
20449;SDS011;10384;51.940;8.432;2023-06-22T11:30:00;11.83;;;6.60;;
20449;SDS011;10384;51.940;8.432;2023-06-22T11:32:26;9.33;;;6.27;;
20449;SDS011;10384;51.940;8.432;2023-06-22T11:34:52;8.93;;;6.67;;
20449;SDS011;10384;51.940;8.432;2023-06-22T11:37:17;11.13;;;6.23;;
20449;SDS011;10384;51.940;8.432;2023-06-22T11:39:43;10.67;;;6.27;;
20449;SDS011;10384;51.940;8.432;2023-06-22T11:42:10;19.97;;;7.13;;
20449;SDS011;10384;51.940;8.432;2023-06-22T11:44:36;10.93;;;6.87;;
20449;SDS011;10384;51.940;8.432;2023-06-22T11:47:02;9.37;;;6.43;;
20449;SDS011;10384;51.940;8.432;2023-06-22T11:49:32;8.83;;;6.40;;
20449;SDS011;10384;51.940;8.432;2023-06-22T11:51:59;9.00;;;6.20;;
20449;SDS011;10384;51.940;8.432;2023-06-22T11:54:25;8.87;;;6.37;;
20449;SDS011;10384;51.940;8.432;2023-06-22T11:56:51;8.50;;;6.10;;
20449;SDS011;10384;51.940;8.432;2023-06-22T11:59:17;9.17;;;6.30;;
20449;SDS011;10384;51.940;8.432;2023-06-22T12:01:43;11.33;;;6.60;;
20449;SDS011;10384;51.940;8.432;2023-06-22T12:04:09;9.97;;;6.23;;
20449;SDS011;10384;51.940;8.432;2023-06-22T12:06:37;10.10;;;6.73;;
20449;SDS011;10384;51.940;8.432;2023-06-22T12:09:03;9.17;;;6.53;;
20449;SDS011;10384;51.940;8.432;2023-06-22T12:11:30;9.57;;;6.37;;
20449;SDS011;10384;51.940;8.432;2023-06-22T12:13:56;10.10;;;6.47;;
20449;SDS011;10384;51.940;8.432;2023-06-22T12:16:26;9.50;;;7.00;;
20449;SDS011;10384;51.940;8.432;2023-06-22T12:18:52;9.90;;;6.47;;
20449;SDS011;10384;51.940;8.432;2023-06-22T12:21:18;8.87;;;6.07;;
20449;SDS011;10384;51.940;8.432;2023-06-22T12:23:44;11.00;;;6.67;;
20449;SDS011;10384;51.940;8.432;2023-06-22T12:26:10;8.40;;;6.43;;
20449;SDS011;10384;51.940;8.432;2023-06-22T12:28:36;11.30;;;6.73;;
20449;SDS011;10384;51.940;8.432;2023-06-22T12:31:02;9.63;;;6.57;;
20449;SDS011;10384;51.940;8.432;2023-06-22T12:33:28;9.20;;;6.63;;
20449;SDS011;10384;51.940;8.432;2023-06-22T12:35:55;9.47;;;5.87;;
20449;SDS011;10384;51.940;8.432;2023-06-22T12:38:21;9.43;;;5.97;;
20449;SDS011;10384;51.940;8.432;2023-06-22T12:40:47;9.77;;;6.70;;
20449;SDS011;10384;51.940;8.432;2023-06-22T12:43:14;15.20;;;6.33;;
20449;SDS011;10384;51.940;8.432;2023-06-22T12:45:40;9.70;;;6.20;;
20449;SDS011;10384;51.940;8.432;2023-06-22T12:48:06;11.03;;;7.10;;
20449;SDS011;10384;51.940;8.432;2023-06-22T12:50:33;11.63;;;6.93;;
20449;SDS011;10384;51.940;8.432;2023-06-22T12:52:59;12.00;;;7.67;;
20449;SDS011;10384;51.940;8.432;2023-06-22T12:55:27;11.20;;;7.93;;
20449;SDS011;10384;51.940;8.432;2023-06-22T12:57:53;12.03;;;7.97;;
20449;SDS011;10384;51.940;8.432;2023-06-22T13:00:19;13.97;;;8.70;;
20449;SDS011;10384;51.940;8.432;2023-06-22T13:02:45;11.50;;;8.17;;
20449;SDS011;10384;51.940;8.432;2023-06-22T13:05:11;13.97;;;8.60;;
20449;SDS011;10384;51.940;8.432;2023-06-22T13:07:37;20.27;;;9.07;;
20449;SDS011;10384;51.940;8.432;2023-06-22T13:10:03;15.67;;;9.37;;
20449;SDS011;10384;51.940;8.432;2023-06-22T13:12:30;19.83;;;12.53;;
20449;SDS011;10384;51.940;8.432;2023-06-22T13:14:55;19.17;;;11.53;;
20449;SDS011;10384;51.940;8.432;2023-06-22T13:17:21;18.43;;;11.67;;
20449;SDS011;10384;51.940;8.432;2023-06-22T13:19:47;14.80;;;8.97;;
20449;SDS011;10384;51.940;8.432;2023-06-22T13:24:53;12.87;;;8.47;;
20449;SDS011;10384;51.940;8.432;2023-06-22T13:27:19;21.83;;;13.47;;
20449;SDS011;10384;51.940;8.432;2023-06-22T13:29:45;19.17;;;12.57;;
20449;SDS011;10384;51.940;8.432;2023-06-22T13:32:11;18.23;;;10.97;;
20449;SDS011;10384;51.940;8.432;2023-06-22T13:34:37;42.87;;;27.03;;
20449;SDS011;10384;51.940;8.432;2023-06-22T13:37:03;43.77;;;28.17;;
20449;SDS011;10384;51.940;8.432;2023-06-22T13:39:29;46.83;;;29.10;;
20449;SDS011;10384;51.940;8.432;2023-06-22T13:41:55;30.33;;;18.03;;
20449;SDS011;10384;51.940;8.432;2023-06-22T13:44:21;24.00;;;14.63;;
20449;SDS011;10384;51.940;8.432;2023-06-22T13:46:47;22.23;;;11.47;;
20449;SDS011;10384;51.940;8.432;2023-06-22T13:49:13;22.73;;;12.67;;
20449;SDS011;10384;51.940;8.432;2023-06-22T13:51:39;18.63;;;12.07;;
20449;SDS011;10384;51.940;8.432;2023-06-22T13:54:05;16.87;;;10.17;;
20449;SDS011;10384;51.940;8.432;2023-06-22T13:56:32;21.13;;;10.93;;
20449;SDS011;10384;51.940;8.432;2023-06-22T13:58:58;19.70;;;11.57;;
20449;SDS011;10384;51.940;8.432;2023-06-22T14:01:24;18.43;;;11.20;;
20449;SDS011;10384;51.940;8.432;2023-06-22T14:03:50;20.03;;;12.07;;
20449;SDS011;10384;51.940;8.432;2023-06-22T14:06:16;17.27;;;10.20;;
20449;SDS011;10384;51.940;8.432;2023-06-22T14:08:42;17.90;;;10.60;;
20449;SDS011;10384;51.940;8.432;2023-06-22T14:11:08;17.23;;;10.27;;
20449;SDS011;10384;51.940;8.432;2023-06-22T14:13:34;16.83;;;10.87;;
20449;SDS011;10384;51.940;8.432;2023-06-22T14:16:00;19.33;;;10.73;;
20449;SDS011;10384;51.940;8.432;2023-06-22T14:18:26;17.23;;;8.93;;
20449;SDS011;10384;51.940;8.432;2023-06-22T14:20:52;15.20;;;9.13;;
20449;SDS011;10384;51.940;8.432;2023-06-22T14:23:18;14.40;;;9.33;;
20449;SDS011;10384;51.940;8.432;2023-06-22T14:25:44;18.73;;;9.40;;
20449;SDS011;10384;51.940;8.432;2023-06-22T14:28:10;16.53;;;10.30;;
20449;SDS011;10384;51.940;8.432;2023-06-22T14:30:36;15.50;;;10.03;;
20449;SDS011;10384;51.940;8.432;2023-06-22T14:33:02;17.17;;;10.50;;
20449;SDS011;10384;51.940;8.432;2023-06-22T14:35:28;18.10;;;10.73;;
20449;SDS011;10384;51.940;8.432;2023-06-22T14:37:54;18.90;;;10.73;;
20449;SDS011;10384;51.940;8.432;2023-06-22T14:40:20;18.47;;;10.40;;